Koekelare, Belgium
Current Conditions -  °F | °C
As of 5:20 PM on Thursday 18 Dec 2014 (Local Time) from EBOS Reporting Station
Broken Clouds Broken Clouds  
Wind Chill: 54°   Ceiling: 1300
Heat Index: 54°   Visibility: 6mi
Dew Point: 50°   Wind: 26mph
Humidity: 88%   Direction: 240°WSW
Pressure: 29.88"   Gusts: 41mph
Location:  51.09°N, 2.98°E
Report Text: EBOS 181620Z 24023G36KT 9999 BKN013 12/10 Q1012 TEMPO BKN008
Loading
Personal Weather Stations






























Interactive Weather Map New forecast layout! Learn more

10-Day Weather Forecast

Advertisements
Track Severe Weather on mobile